This site, now in its 22nd season, is a labour of love and fun from one of Ottawa's most avid time trialists and number crunchers. It adheres to and is permitted by the laws of Canada, promotes the objectives of every bicycle club whose results are shown, and is donated free of charge by myself for your enjoyment and usage. If you would like results from series you ride in to be shown here, give me (celia@drmath.ca) a shout!
NOTE that this site had to be quickly moved to a new server with a new version of Perl. Unfortunately the way of interacting with the web form has changed, so I'll have to do some reprogramming to get the buttons and search boxes working. Meanwhile the links work fine and you can always add query specifications into the URL! :-)


Index Page
ATT OTT WTT AATT CFCTT VVVTT
Help resultformat:
Case-sensitive

OBC Open TT Series - 2012-Sep-06 - 15km (Rockliffe Pkwy) (EvtFactor = 0.9606)

Ottawa Weather (18:00): Mainly Sunny. Temperature: 27C, Humidity: 42%, Dew Point: 13C, Wind: NNW 21km/h, Pressure: 100.8kPa, Vis: 24km, Humidex: 29.
Ottawa Weather (19:00): Partly Cloudy. Temperature: 25C, Humidity: 48%, Dew Point: 13C, Wind: NW 19km/h, Pressure: 100.9kPa, Vis: 24km, Humidex: 27.
Ottawa Weather (20:00): Mainly Clear. Temperature: 22C, Humidity: 55%, Dew Point: 13C, Wind: NW 10km/h, Pressure: 101.0kPa, Vis: 24km, Humidex: *.

Earlier predictions of evening rain and thunder storms did not materialize, and 53 riders came out to do this second last OBC 15km time trial of 2012. The biggest concern for the organizers at registration time was the traffic jam that had cars backed up on the parkway for several kilometers before our turn-around point. The culvert collapse on the Queensway in Orleans on Tuesday left motorists in need of another route home, and with so many chosing the Rockliffe Parkway, it would have been virtually impossible for riders to do safe and efficient turns. There was some thought of doing just a 7.5km time trial from the usual turn-around back to the finish line, but soon after 18:00, the traffic had cleared and the normal 15km time trial was held. There were still occasional strings of ten or so vehicles which may have impeded some riders at the turn-around. It was a little breezy (NNW 21km/h) for the early riders tonight, but as the wind dropped, the air pressure rose to offset any advantage for the later starters. Eight people registered improvements upon their previous 15km Database best and the improvement for third placed Marcel Lavoie (19:41) was a huge cube speed ratio of 1.2318, while Alexis Dallaire (21:58) had a ratio of 1.1206. Kudos also for second placed Mason Hanrahan (19:33) whose 1.10814 improvement put him below 20 minutes (well below!) for the first time! Of the women,only one, Kelly McKean (23:19) posted a new database best. She was also the fastest woman of the night, followed closely by Ellen Pazdzior (23:21) in second, and by Carol Deavy (23:33) for third. The fastest man of the night was Douglas van den Ham (19:17) who has been faster than 20 minutes for every one of his thirteen 15km time trials so far this year. Way to go!

These results were posted on the OBC site circa 21:30 on 2012-Sep-06 and are available here for your added pleasure and analysis.

(Lest complaints about me just lazily sucking in the results surface, I wish to make it perfectly clear that I would look after the data entry. Historically, for the decade starting in 1998 I had all of the WTT series up within a few hours of the event, and likewise for the OTT series from 1999-2002 and again in 2006. More recently, I have written web software which can run from the start/finish lines to register, seed, calculate rider times from elapsed times and database the results immediately. The OBC Board however, not only won't let me volunteer here, but strangely enough they actually expelled me from the OBC for donating this time trial web site to you !)




 
 

BESTS?
 
1 van den Ham, Douglas  NTF 19:17 46.672 1/53 U40M 1/11 0.9641
2 Hanrahan, Mason RWR 19:33 46.036 2/53 U30M 1/3 1.1306
3 Lavoie, Marcel  WQW 19:41 45.724 3/53 U50M 1/10 1.2318
4 Proulx, Steve  CYC 19:54 45.226 4/53 U50M 2/10 0.9604
5 Gee, Derek  OBC 19:57 45.113 5/53 U17M 1/3 0.9580
Pérès, Erwan TBR 19:57 45.113 5/53 U50M 3/10 1.0227
7 Datars, Paul  OBC/RWR 20:08 44.702 7/53 U60M 1/13 0.9439
8 Michel, Alexandre  TTC 20:09 44.665 8/53 U40M 2/11 0.9754
9 Richer, Antoine --- 20:28 43.974 9/53 U40M 3/11 0.9591
10 Katz, Joel  OBC/RWR 20:42 43.478 10/53 U60M 2/13 0.9665
11 Lacasse, Jeremie  OBC 21:00 42.857 11/53 U17M 2/3 0.9834
12 Diaz, Rodrigo  EUR 21:01 42.823 12/53 U40M 4/11 0.9212
13 Hawkes, Craig CYC 21:03 42.755 13/53 U40M 5/11 0.8176
14 Budgell, Glen  OBC 21:11 42.486 14/53 U60M 3/13 0.9107
15 Wolfe, Yariv OBC 21:12 42.453 15/53 U50M 4/10 1.0024
16 Christie, Greg  OBC/RWR 21:15 42.353 16/53 U60M 4/13 0.9606
17 Lister, Adam OBC 21:25 42.023 17/53 U30M 2/3 0.9383
18 Tregunno, Peter  OBC 21:30 41.860 18/53 U40M 6/11 0.9363
19 Armstrong, Brian OBC 21:43 41.443 19/53 U50M 5/10 1.0023
20 Dallaire, Alexis --- 21:58 40.971 20/53 U40M 7/11 1.1206
21 Moerman, Bram  OBC 22:07 40.693 21/53 U70M 1/3 0.9731
22 Larson, Eric RWR 22:09 40.632 22/53 U50M 6/10 0.9732
23 Breton, Bernard --- 22:11 40.571 23/53 U50M 7/10 1.0045
24 Blais, Bob --- 22:26 40.119 24/53 U60M 5/13 0.9561
25 Drouin, Marcel OBC 22:27 40.089 25/53 U50M 8/10 0.9582
26 Dion, Brian OBC 22:34 39.882 26/53 U40M 8/11 0.9802
27 Deschamps, Martin WQW 22:46 39.531 27/53 U40M 9/11 0.9524
28 Hicks, Bob  OBC 23:01 39.102 28/53 U70M 2/3 0.9197
29 Farish, Neil  OBC/RWR 23:11 38.821 29/53 U60M 6/13 1.0371
30 Harcourt, Douglas OBC 23:14 38.737 30/53 U40M 10/11 1.0021
31 McKean, Kelly --- 23:19 38.599 31/53 U40F 1/2 1.0657
Rivoche, Michael OBC 23:19 38.599 31/53 U60M 7/13 1.0151
33 Fenerty, Keith OBC 23:21 38.544 33/53 U50M 9/10 1.0000
s Pazdzior, Ellen  OBC 23:21 38.544 33/53 U60F 1/4 1.1202
35 Deavy, Carol  OBC 23:33 38.217 35/53 U50F 1/3 0.9135
36 Yaeger, Dave  OBC 23:34 38.190 36/53 U60M 8/13 0.9337
37 Pavelich, John OBC 23:51 37.736 37/53 U60M 9/13 1.0021
38 Lacopia, Tony  FC 23:56 37.604 38/53 U30M 3/3 0.8875
39 Imbrogno, Giorgio  OBC 24:05 37.370 39/53 U70M 3/3 0.9793
40 Coney, Ingrid  OBC 24:23 36.910 40/53 U60F 2/4 1.0457
41 Dal-Cin, Mauro EUR 24:34 36.635 41/53 U60M 10/13 1.0665
42 Austen, Ian  OBC 24:44 36.388 42/53 U60M 11/13 0.9503
43 Datars, Sally OBC 24:58 36.048 43/53 U60F 3/4 0.9840
44 Johnson, Laura  OBC 25:10 35.762 44/53 U40F 2/2 0.9685
45 Liechti, Hans-Peter OBC 25:12 35.714 45/53 U60M 12/13 0.9822
46 Janusauskas, Vytas  OBC 25:44 34.974 46/53 U60M 13/13 0.9353
47 King, Dustin --- 25:46 34.929 47/53 U17M 3/3 0.7964
48 McInnis, Celia  ABC/CYF 26:24 34.091 48/53 U60F 4/4 0.9226
49 Perkins, Cherylin  OBC 27:20 32.927 49/53 U50F 2/3 0.9462
50 Mah, Jason CLG 27:22 32.887 50/53 U40M 11/11  
51 Byskov, Karen  OBC 32:15 27.907 51/53 U50F 3/3 1.2456
52 Wright, Geoffrey  OBC 32:45 27.481 52/53 U90M 1/1 0.9894
53 DeVidi, Robert  OBC DNF   53/53 U50M 10/10  
 
Average Speed of all of the above 52 finishes (780km in 19:58:06):39.062
>>>Average of the Average Speeds for these 52 finishes39.557<<<
 

The number of data records shown above is 53
The server processing of your query took: 0 wallclock secs ( 0.05 usr + 0.02 sys = 0.06 CPU)

Thanks to our Helpers: Karianne Belanger, Michel Bernier, Dianne Marleau, Alex McKnight, Jess Raymond, Stephanie Rees, Peter Tregunno.

     


Apr 6 (Good Friday) Apr 16 (10km) Apr 23 (10km) (Canceled - Cold Drizzle) Apr 30 (10km)
May 1 (10km) May 3 May 7 (10km) May 8 (10km) May 10 May 14 (10km) May 15 May 15 (10km) May 17 May 22 May 22 (10km) May 24 May 28 (10km) May 29 May 29 (10km) May 31
Jun 3 (40km) Jun 4 (10km) Jun 5 Jun 5 Jun 7 Jun 11 (10km) Jun 12 Jun 12 Jun 14 Jun 18 (10km) Jun 19 Jun 19 Jun 21 Jun 25 (10km) Jun 26 Jun 26 Jun 28
Jul 2 (10km) Jul 3 Jul 3 Jul 5 Jul 8 (40km) Jul 9 Jul 10 Jul 10 Jul 12 Jul 16 Jul 17 Jul 17 Jul 19 Jul 22 (40km) Jul 23 (Cancelled - Thunderstorm) Jul 24 Jul 24 Jul 26 Jul 30 Jul 31 Jul 31
Aug 2 Aug 5 (40km) Aug 6 Aug 7 Aug 7 Aug 9 Aug 12 (40km) Aug 13 Aug 14 Aug 14 Aug 16 Aug 20 Aug 21 Aug 21 Aug 23 Aug 28 Aug 28 (Invitational) Aug 30
Sep 2 (40km) Sep 4
  Sep 6  
Sep 9 (40km) Sep 11 Sep 13 Sep 18 Sep 25

OTT Rankings
3 Best Speeds     3 Best Speeds by category
WTT Rankings for All Participants
4 Best Speeds (≥4 WTT, ≤1 10km)     4 Best Speeds (≥4 WTT, ≤1 10km) by category
OTT Best Three 15km Rankings
Overall     by category     age-Hcap Female   age-Hcap Male
[OWA]TT BAR Ranking
Overall     by category     Rider "Consistency-Graph"
ABC BAR Ranking
Overall     by category     Rider "Consistency-Graph"
Other years
TT Calculator All TT People All TT events
ABC Home VVV Home
CKAP GOLD MEDAL
Other Links

Please send your comments and suggestions to: Celia McInnis
Copyright © 1998-2021 Celia McInnis. All rights reserved. Links are welcomed.